Serafina — MQPN9 — position and weather

sailwx.info

Track history (hours):
 
Tides and Currents Weather Stations Pressure Air Temp Water Temp Dewpoint Dewpoint Depression Visibility Wind Speed Wind Dir Waves Ship Positions

Serafina

Last reported at 2017-Oct-28 12:30 UTC. Time now 2017-Nov-23 07:51 UTC.
Position N 37°39' W 000°41'.
Warning: this ship's position is 25 days out of date.

Length 14 m.

Type: Sailing vessel. MMSI: 235053233.

Date/timePositionNaut miles runAvg speedWind from/ knotsBaromVisibWave heightAir tempDewpointWater temp
2017-Oct-28 12:30N 37°39' W 000°41'3 6.4
2017-Oct-28 12:00N 37°42' W 000°40'3 5.9
2017-Oct-28 11:31N 37°45' W 000°40'5 6.4
2017-Oct-28 10:42N 37°50' W 000°39'1 3.5
2017-Oct-28 10:28N 37°51' W 000°39'2 4.4
2017-Oct-28 10:00N 37°53' W 000°40'2 3.6
2017-Oct-28 09:30N 37°55' W 000°41'3 5.9
2017-Oct-28 09:00N 37°58' W 000°41'1 0.0
2017-Oct-27 14:35N 37°58' W 000°41'0 0.0
2017-Oct-27 14:28N 37°58' W 000°41'1 1.3
2017-Oct-27 13:58N 37°58' W 000°41'2 3.5
2017-Oct-27 13:29N 37°58' W 000°39'  
2017-Oct-23 06:47N 38°50' E 001°25'2 7.4
2017-Oct-23 06:30N 38°52' E 001°26'3 0.1
2017-Oct-21 12:31N 38°55' E 001°27'0 0.0
2017-Oct-21 12:27N 38°55' E 001°27'1 2.5
2017-Oct-21 11:59N 38°54' E 001°28'2 3.8
2017-Oct-21 11:30N 38°54' E 001°30'3 2.7
2017-Oct-21 10:21N 38°57' E 001°32'2 5.1
2017-Oct-21 10:00N 38°59' E 001°32'0 0.0
2017-Oct-19 17:05N 38°59' E 001°32'0 0.0
2017-Oct-19 16:59N 38°59' E 001°32'0 0.1
2017-Oct-19 16:29N 38°59' E 001°32'0 0.6
2017-Oct-19 16:00N 38°59' E 001°33'  
Track history (hours):
 
Tides and Currents Weather Stations Pressure Air Temp Water Temp Dewpoint Dewpoint Depression Visibility Wind Speed Wind Dir Waves Ship Positions

Serafina

Last reported at 2017-Oct-28 12:30 UTC. Time now 2017-Nov-23 07:51 UTC.
Position N 37°39' W 000°41'.
Warning: this ship's position is 25 days out of date.

Length 14 m.

Type: Sailing vessel. MMSI: 235053233.

Date/timePositionNaut miles runAvg speedWind from/ knotsBaromVisibWave heightAir tempDewpointWater temp
2017-Oct-28 12:30N 37°39' W 000°41'3 6.4
2017-Oct-28 12:00N 37°42' W 000°40'3 5.9
2017-Oct-28 11:31N 37°45' W 000°40'5 6.4
2017-Oct-28 10:42N 37°50' W 000°39'1 3.5
2017-Oct-28 10:28N 37°51' W 000°39'2 4.4
2017-Oct-28 10:00N 37°53' W 000°40'2 3.6
2017-Oct-28 09:30N 37°55' W 000°41'3 5.9
2017-Oct-28 09:00N 37°58' W 000°41'1 0.0
2017-Oct-27 14:35N 37°58' W 000°41'0 0.0
2017-Oct-27 14:28N 37°58' W 000°41'1 1.3
2017-Oct-27 13:58N 37°58' W 000°41'2 3.5
2017-Oct-27 13:29N 37°58' W 000°39'  
2017-Oct-23 06:47N 38°50' E 001°25'2 7.4
2017-Oct-23 06:30N 38°52' E 001°26'3 0.1
2017-Oct-21 12:31N 38°55' E 001°27'0 0.0
2017-Oct-21 12:27N 38°55' E 001°27'1 2.5
2017-Oct-21 11:59N 38°54' E 001°28'2 3.8
2017-Oct-21 11:30N 38°54' E 001°30'3 2.7
2017-Oct-21 10:21N 38°57' E 001°32'2 5.1
2017-Oct-21 10:00N 38°59' E 001°32'0 0.0
2017-Oct-19 17:05N 38°59' E 001°32'0 0.0
2017-Oct-19 16:59N 38°59' E 001°32'0 0.1
2017-Oct-19 16:29N 38°59' E 001°32'0 0.6
2017-Oct-19 16:00N 38°59' E 001°33'  

Dump ship's entire track history